Time;durP1;ratioP1;P1;durP2;ratioP2;P2;SDS_P1;SDS_P2;PMS_P1;PMS_P2;Temp;Humidity;BMP_temperature;BMP_pressure;BME280_temperature;BME280_humidity;BME280_pressure;Samples;Min_cycle;Max_cycle;Signal;HPM_P1;HPM_P2
2022/10/16 00:01:27;;;;;;;13.00;9.50;;;;;;;12.94;69.79;96877.55;105044;1287;23435;-77
2022/10/16 00:04:00;;;;;;;10.20;8.50;;;;;;;12.92;69.96;96877.90;105062;1293;25220;-76
2022/10/16 00:06:32;;;;;;;11.50;9.10;;;;;;;12.89;70.02;96883.36;105044;1285;22469;-76
2022/10/16 00:09:04;;;;;;;12.80;9.30;;;;;;;12.86;70.10;96878.25;105017;1305;22462;-76
2022/10/16 00:11:37;;;;;;;12.40;9.20;;;;;;;12.83;70.22;96877.60;105039;1291;22512;-76
2022/10/16 00:14:13;;;;;;;12.20;9.50;;;;;;;12.79;70.44;96874.45;105032;1300;22581;-76
2022/10/16 00:16:44;;;;;;;10.80;9.60;;;;;;;12.77;70.49;96875.16;104997;1305;22460;-76
2022/10/16 00:19:15;;;;;;;10.90;9.70;;;;;;;12.75;70.67;96880.14;105010;1304;22597;-77
2022/10/16 00:21:47;;;;;;;14.10;10.00;;;;;;;12.74;70.75;96884.73;105072;1304;22492;-76
2022/10/16 00:24:18;;;;;;;11.30;10.00;;;;;;;12.75;70.99;96883.80;105070;1302;22469;-77
2022/10/16 00:26:52;;;;;;;12.90;9.50;;;;;;;12.77;70.92;96888.23;105087;1295;22466;-76
2022/10/16 00:29:23;;;;;;;13.00;9.40;;;;;;;12.77;71.06;96888.09;105002;1283;22475;-76
2022/10/16 00:31:54;;;;;;;12.10;9.40;;;;;;;12.76;71.11;96890.08;104967;1295;23235;-76
2022/10/16 00:34:26;;;;;;;11.20;9.80;;;;;;;12.75;71.33;96889.83;105022;1290;22485;-76
2022/10/16 00:36:57;;;;;;;10.80;9.50;;;;;;;12.74;71.48;96890.10;105006;1283;22467;-76
2022/10/16 00:39:31;;;;;;;11.70;9.10;;;;;;;12.77;71.55;96888.20;104978;1295;22506;-76
2022/10/16 00:42:02;;;;;;;13.10;9.70;;;;;;;12.81;71.57;96892.63;104998;1306;22466;-76
2022/10/16 00:44:52;;;;;;;13.60;9.60;;;;;;;12.85;71.51;96893.16;105000;1306;24236;-76
2022/10/16 00:47:27;;;;;;;12.10;9.30;;;;;;;12.90;71.52;96896.23;105002;1300;22524;-76
2022/10/16 00:50:05;;;;;;;11.90;9.30;;;;;;;12.92;71.46;96898.54;104962;1283;22436;-76
2022/10/16 00:52:38;;;;;;;13.20;9.60;;;;;;;12.96;71.51;96900.43;104737;1294;335933;-76
2022/10/16 00:55:11;;;;;;;14.60;9.40;;;;;;;12.97;71.49;96902.55;105068;1287;22516;-76
2022/10/16 00:57:44;;;;;;;12.40;8.90;;;;;;;13.01;71.43;96903.55;105033;1306;22485;-76
2022/10/16 01:00:19;;;;;;;11.70;9.30;;;;;;;13.05;71.51;96904.81;105025;1306;22491;-76
2022/10/16 01:02:57;;;;;;;10.30;9.00;;;;;;;13.08;71.35;96910.79;105101;1305;24768;-76
2022/10/16 01:05:39;;;;;;;10.90;9.20;;;;;;;13.11;71.40;96912.43;105048;1300;23228;-77
2022/10/16 01:08:19;;;;;;;10.80;8.90;;;;;;;13.13;71.30;96911.66;105040;1291;22457;-76
2022/10/16 01:10:58;;;;;;;15.50;8.50;;;;;;;13.13;71.28;96915.54;105024;1305;32230;-76
2022/10/16 01:13:41;;;;;;;13.70;9.90;;;;;;;13.15;71.34;96913.16;105032;1290;22482;-76
2022/10/16 01:16:19;;;;;;;10.30;8.70;;;;;;;13.16;71.31;96920.81;105003;1302;22452;-76
2022/10/16 01:18:56;;;;;;;12.10;9.30;;;;;;;13.15;71.32;96917.58;105005;1296;22487;-76
2022/10/16 01:21:33;;;;;;;12.40;9.70;;;;;;;13.14;71.38;96916.38;105138;1304;22533;-77
2022/10/16 01:24:10;;;;;;;11.80;10.30;;;;;;;13.12;71.31;96917.89;105068;1295;22529;-76
2022/10/16 01:26:53;;;;;;;10.30;8.90;;;;;;;13.16;71.52;96915.55;105146;1290;22467;-76
2022/10/16 01:29:30;;;;;;;13.80;9.60;;;;;;;13.18;71.56;96918.14;105059;1283;22463;-77
2022/10/16 01:32:07;;;;;;;10.70;8.90;;;;;;;13.20;71.56;96915.46;105120;1306;22464;-77
2022/10/16 01:34:47;;;;;;;12.50;8.70;;;;;;;13.24;71.51;96914.89;105132;1290;25244;-76
2022/10/16 01:37:26;;;;;;;10.40;9.30;;;;;;;13.27;71.53;96916.76;105140;1286;22482;-77
2022/10/16 01:40:00;;;;;;;12.50;9.00;;;;;;;13.30;71.46;96917.14;105003;1305;23530;-76
2022/10/16 01:42:40;;;;;;;11.40;8.90;;;;;;;13.33;71.45;96915.70;105005;1306;22472;-76
2022/10/16 01:45:17;;;;;;;11.80;9.20;;;;;;;13.39;71.33;96917.65;104996;1305;22497;-77
2022/10/16 01:47:51;;;;;;;11.10;9.30;;;;;;;13.44;71.31;96914.65;105027;1305;22482;-77
2022/10/16 01:50:24;;;;;;;9.70;8.40;;;;;;;13.47;71.19;96919.77;105106;1298;24449;-77
2022/10/16 01:52:58;;;;;;;10.30;8.40;;;;;;;13.50;71.11;96923.88;105142;1305;22494;-76
2022/10/16 01:55:33;;;;;;;12.40;10.00;;;;;;;13.57;70.92;96927.13;105100;1305;22936;-77
2022/10/16 01:58:08;;;;;;;12.20;9.50;;;;;;;13.61;70.76;96933.20;105098;1291;24484;-76
2022/10/16 02:00:43;;;;;;;12.40;9.60;;;;;;;13.62;70.79;96932.39;104975;1290;24264;-77
2022/10/16 02:03:19;;;;;;;11.10;8.80;;;;;;;13.58;70.82;96935.00;105014;1306;22475;-77
2022/10/16 02:05:55;;;;;;;12.50;9.90;;;;;;;13.57;70.68;96937.59;105012;1287;22539;-77
2022/10/16 02:08:29;;;;;;;9.50;8.30;;;;;;;13.57;70.78;96940.18;104937;1287;65345;-77
2022/10/16 02:11:01;;;;;;;13.50;10.00;;;;;;;13.57;70.80;96942.42;105136;1281;24710;-77
2022/10/16 02:13:36;;;;;;;12.10;10.30;;;;;;;13.55;70.82;96943.48;105132;1281;22473;-76
2022/10/16 02:16:10;;;;;;;12.70;10.10;;;;;;;13.47;70.84;96945.13;105050;1287;25385;-76
2022/10/16 02:18:42;;;;;;;10.80;9.50;;;;;;;13.44;70.99;96946.71;105025;1290;22604;-76
2022/10/16 02:21:20;;;;;;;11.40;9.80;;;;;;;13.42;71.11;96947.81;105023;1305;22543;-76
2022/10/16 02:23:57;;;;;;;11.40;9.70;;;;;;;13.38;71.20;96951.38;105009;1283;25810;-76
2022/10/16 02:26:37;;;;;;;11.90;9.60;;;;;;;13.32;71.41;96950.86;105006;1306;22476;-76
2022/10/16 02:29:11;;;;;;;12.10;9.90;;;;;;;13.30;71.53;96950.10;105038;1290;22500;-76
2022/10/16 02:31:47;;;;;;;12.10;10.30;;;;;;;13.28;71.57;96947.79;105087;1306;22484;-76
2022/10/16 02:34:19;;;;;;;13.90;10.70;;;;;;;13.27;71.66;96949.09;105048;1295;22594;-76
2022/10/16 02:36:51;;;;;;;12.10;10.10;;;;;;;13.26;71.75;96950.38;105059;1306;22597;-76
2022/10/16 02:39:23;;;;;;;12.50;10.10;;;;;;;13.28;71.68;96947.16;105023;1290;24427;-76
2022/10/16 02:41:54;;;;;;;13.20;10.60;;;;;;;13.29;71.67;96950.22;105016;1305;22594;-76
2022/10/16 02:44:25;;;;;;;13.70;10.10;;;;;;;13.29;71.72;96947.20;104980;1296;22521;-76
2022/10/16 02:46:57;;;;;;;11.50;9.70;;;;;;;13.26;71.73;96947.81;105013;1289;22545;-76
2022/10/16 02:49:30;;;;;;;11.70;9.90;;;;;;;13.25;71.86;96949.23;104983;1296;22492;-76
2022/10/16 02:52:01;;;;;;;13.40;11.30;;;;;;;13.23;71.90;96946.20;105023;1299;22476;-76
2022/10/16 02:54:33;;;;;;;11.90;10.40;;;;;;;13.20;72.00;96946.66;105063;1290;22489;-76
2022/10/16 02:57:06;;;;;;;12.50;9.60;;;;;;;13.17;72.18;96948.07;105037;1305;22474;-76
2022/10/16 02:59:38;;;;;;;11.50;10.20;;;;;;;13.16;72.10;96945.15;105008;1305;22517;-76
2022/10/16 03:02:09;;;;;;;13.10;10.60;;;;;;;13.18;72.17;96946.99;104999;1305;22926;-76
2022/10/16 03:04:41;;;;;;;12.10;9.30;;;;;;;13.19;72.04;96946.09;105029;1306;25323;-76
2022/10/16 03:07:12;;;;;;;18.30;10.00;;;;;;;13.20;72.03;96947.66;105056;1305;25378;-76
2022/10/16 03:09:43;;;;;;;14.10;9.60;;;;;;;13.21;72.00;96950.16;104946;1308;22494;-76
2022/10/16 03:12:14;;;;;;;9.50;8.20;;;;;;;13.23;71.90;96952.80;105040;1287;22469;-76
2022/10/16 03:14:45;;;;;;;11.40;8.90;;;;;;;13.27;71.85;96953.46;104990;1305;22504;-76
2022/10/16 03:17:17;;;;;;;10.50;8.40;;;;;;;13.31;71.70;96954.89;104995;1306;22471;-76
2022/10/16 03:19:48;;;;;;;14.90;9.50;;;;;;;13.37;71.50;96957.30;104958;1305;22477;-76
2022/10/16 03:22:19;;;;;;;11.10;8.60;;;;;;;13.40;71.34;96954.23;105036;1296;22509;-75
2022/10/16 03:24:51;;;;;;;11.40;8.70;;;;;;;13.40;71.29;96956.16;105031;1291;25405;-76
2022/10/16 03:27:22;;;;;;;10.20;8.40;;;;;;;13.42;71.14;96962.14;105026;1296;22488;-76
2022/10/16 03:29:53;;;;;;;10.40;8.80;;;;;;;13.43;71.02;96956.05;104976;1305;22472;-76
2022/10/16 03:32:24;;;;;;;11.40;8.90;;;;;;;13.42;70.87;96961.98;105054;1305;22562;-76
2022/10/16 03:34:56;;;;;;;11.40;8.90;;;;;;;13.41;70.88;96961.26;104995;1301;22471;-76
2022/10/16 03:37:27;;;;;;;10.90;8.40;;;;;;;13.40;70.84;96964.47;105083;1287;25454;-76
2022/10/16 03:39:59;;;;;;;11.30;9.40;;;;;;;13.39;70.76;96964.33;104992;1297;22544;-76
2022/10/16 03:42:30;;;;;;;13.10;8.90;;;;;;;13.40;70.75;96964.73;104989;1306;22539;-76
2022/10/16 03:45:01;;;;;;;11.60;9.50;;;;;;;13.40;70.76;96969.04;104982;1295;25673;-76
2022/10/16 03:47:33;;;;;;;11.00;8.40;;;;;;;13.36;70.71;96974.14;105010;1291;22501;-76
2022/10/16 03:50:05;;;;;;;13.30;8.70;;;;;;;13.31;70.85;96971.45;105039;1290;23798;-76
2022/10/16 03:52:36;;;;;;;12.50;9.70;;;;;;;13.26;70.95;96980.61;105104;1302;22921;-76
2022/10/16 03:55:09;;;;;;;11.70;9.00;;;;;;;13.22;71.08;96981.98;105089;1305;24333;-76
2022/10/16 03:57:43;;;;;;;10.80;7.80;;;;;;;13.19;71.10;96988.30;105124;1295;22482;-76
2022/10/16 04:00:15;;;;;;;11.40;8.40;;;;;;;13.18;71.29;96992.09;104984;1311;23513;-76
2022/10/16 04:02:46;;;;;;;16.10;9.70;;;;;;;13.16;71.28;96993.86;105057;1291;22467;-76
2022/10/16 04:05:18;;;;;;;10.20;8.00;;;;;;;13.14;71.40;96994.52;105015;1296;22510;-76
2022/10/16 04:07:49;;;;;;;10.70;7.40;;;;;;;13.15;71.39;97000.21;105012;1297;25336;-76
2022/10/16 04:10:21;;;;;;;12.40;9.60;;;;;;;13.17;71.39;97002.10;104956;1305;22509;-76
2022/10/16 04:12:54;;;;;;;11.50;8.60;;;;;;;13.16;71.32;97006.00;105003;1287;22562;-76
2022/10/16 04:15:26;;;;;;;13.40;9.30;;;;;;;13.14;71.32;97007.36;105002;1306;22492;-76
2022/10/16 04:17:57;;;;;;;11.20;8.60;;;;;;;13.14;71.33;97014.70;105003;1304;22503;-76
2022/10/16 04:20:29;;;;;;;13.40;9.30;;;;;;;13.14;71.26;97014.77;105049;1296;22562;-76
2022/10/16 04:23:00;;;;;;;9.70;8.10;;;;;;;13.13;71.25;97010.94;105101;1289;22476;-76
2022/10/16 04:25:32;;;;;;;10.20;8.80;;;;;;;13.13;71.15;97006.42;105085;1312;22475;-76
2022/10/16 04:28:03;;;;;;;9.30;7.90;;;;;;;13.13;71.08;97009.45;105070;1290;22510;-76
2022/10/16 04:30:34;;;;;;;12.40;8.80;;;;;;;13.13;71.07;97007.70;105009;1305;22471;-76
2022/10/16 04:33:06;;;;;;;14.50;9.20;;;;;;;13.12;71.06;97006.80;105050;1289;22542;-76
2022/10/16 04:35:37;;;;;;;12.10;8.90;;;;;;;13.08;71.11;97007.00;105090;1310;22473;-76
2022/10/16 04:38:08;;;;;;;16.20;9.60;;;;;;;13.09;71.18;97012.21;105053;1296;22486;-76
2022/10/16 04:40:39;;;;;;;10.40;8.50;;;;;;;13.07;71.27;97014.88;105025;1307;25410;-76
2022/10/16 04:43:10;;;;;;;11.20;7.90;;;;;;;13.05;71.23;97011.34;105048;1306;22512;-75
2022/10/16 04:45:42;;;;;;;10.70;9.20;;;;;;;13.04;71.37;97008.63;105009;1305;22516;-76
2022/10/16 04:48:13;;;;;;;11.50;8.40;;;;;;;13.02;71.42;97013.23;105040;1299;22468;-76
2022/10/16 04:50:45;;;;;;;9.70;7.70;;;;;;;12.98;71.47;97013.45;105018;1304;22522;-76
2022/10/16 04:53:16;;;;;;;11.90;9.00;;;;;;;12.97;71.58;97016.08;105090;1306;22502;-76
2022/10/16 04:55:47;;;;;;;8.90;7.10;;;;;;;12.94;71.64;97009.43;105088;1304;22485;-76
2022/10/16 04:58:18;;;;;;;10.70;8.30;;;;;;;12.92;71.71;97011.48;105047;1306;24444;-76
2022/10/16 05:00:49;;;;;;;11.50;8.60;;;;;;;12.92;71.73;97011.11;104976;1306;36534;-76
2022/10/16 05:03:21;;;;;;;12.00;8.80;;;;;;;12.92;71.77;97018.98;105011;1290;22465;-76
2022/10/16 05:05:52;;;;;;;14.10;9.10;;;;;;;12.89;71.87;97020.20;105017;1295;22507;-76
2022/10/16 05:08:23;;;;;;;10.30;8.00;;;;;;;12.85;71.98;97026.41;104941;1305;25240;-76
2022/10/16 05:10:56;;;;;;;12.80;8.90;;;;;;;12.83;72.04;97023.41;104990;1291;25232;-76
2022/10/16 05:13:27;;;;;;;11.20;9.20;;;;;;;12.81;72.13;97030.73;105027;1292;24012;-75
2022/10/16 05:16:01;;;;;;;11.50;8.80;;;;;;;12.78;72.38;97030.09;105031;1305;22526;-75
2022/10/16 05:18:32;;;;;;;16.00;9.40;;;;;;;12.79;72.51;97033.38;104987;1303;22514;-75
2022/10/16 05:21:03;;;;;;;10.50;9.00;;;;;;;12.79;72.58;97031.94;105073;1305;22473;-76
2022/10/16 05:23:35;;;;;;;12.70;8.60;;;;;;;12.78;72.69;97034.39;105023;1305;22524;-76
2022/10/16 05:26:06;;;;;;;11.40;9.00;;;;;;;12.80;72.74;97032.84;105018;1289;22532;-76
2022/10/16 05:28:40;;;;;;;12.20;9.60;;;;;;;12.82;72.78;97029.65;105004;1305;22588;-76
2022/10/16 05:31:12;;;;;;;10.70;8.70;;;;;;;12.89;72.79;97033.83;104995;1306;22641;-76
2022/10/16 05:33:43;;;;;;;11.40;8.80;;;;;;;13.15;72.65;97034.17;104968;1305;22473;-76
2022/10/16 05:36:15;;;;;;;10.10;7.70;;;;;;;13.21;72.20;97038.86;104999;1303;22472;-76
2022/10/16 05:38:46;;;;;;;10.20;8.70;;;;;;;13.29;72.22;97038.88;104972;1305;22479;-76
2022/10/16 05:41:21;;;;;;;11.90;8.80;;;;;;;13.48;71.74;97040.58;104985;1305;23683;-76
2022/10/16 05:43:52;;;;;;;11.10;8.80;;;;;;;13.86;71.47;97045.08;104990;1302;22468;-76
2022/10/16 05:46:23;;;;;;;11.60;8.90;;;;;;;14.34;70.55;97049.64;104974;1299;22471;-76
2022/10/16 05:48:56;;;;;;;10.60;7.90;;;;;;;14.67;69.57;97051.09;104986;1287;22477;-76
2022/10/16 05:51:27;;;;;;;11.90;8.80;;;;;;;14.79;68.40;97053.39;105059;1290;22578;-76
2022/10/16 05:54:00;;;;;;;9.70;8.10;;;;;;;14.64;68.24;97057.34;105021;1290;23632;-76
2022/10/16 05:56:32;;;;;;;10.10;8.10;;;;;;;14.52;68.15;97061.77;105039;1294;22476;-76
2022/10/16 05:59:04;;;;;;;10.30;8.10;;;;;;;14.44;68.09;97062.35;104912;1279;22485;-76
2022/10/16 06:01:35;;;;;;;9.80;8.80;;;;;;;14.38;68.19;97066.33;104995;1305;22458;-77
2022/10/16 06:04:06;;;;;;;10.40;8.10;;;;;;;14.26;68.29;97070.72;104972;1293;22506;-77
2022/10/16 06:06:40;;;;;;;9.40;8.10;;;;;;;14.13;68.44;97076.84;105107;1305;24256;-77
2022/10/16 06:09:12;;;;;;;10.60;8.50;;;;;;;14.10;68.67;97073.48;105102;1288;22458;-77
2022/10/16 06:11:44;;;;;;;12.10;8.20;;;;;;;14.11;68.77;97077.20;105153;1305;22484;-75
2022/10/16 06:14:16;;;;;;;10.00;8.40;;;;;;;14.11;68.75;97078.46;105109;1298;23282;-75
2022/10/16 06:16:48;;;;;;;10.30;8.70;;;;;;;14.17;68.81;97080.82;105061;1305;22520;-75
2022/10/16 06:19:20;;;;;;;13.40;9.10;;;;;;;14.21;68.65;97078.31;105075;1305;22471;-74
2022/10/16 06:21:51;;;;;;;10.20;8.50;;;;;;;14.34;68.85;97082.77;105099;1298;22598;-74
2022/10/16 06:24:23;;;;;;;11.00;8.20;;;;;;;14.82;68.24;97086.29;105052;1305;22468;-75
2022/10/16 06:26:54;;;;;;;11.50;8.90;;;;;;;15.48;67.28;97087.79;105096;1290;22524;-75
2022/10/16 06:29:26;;;;;;;10.10;8.60;;;;;;;16.03;66.02;97086.50;105036;1299;25446;-75
2022/10/16 06:31:59;;;;;;;8.50;7.40;;;;;;;16.35;64.80;97090.88;105087;1305;22596;-75
2022/10/16 06:34:30;;;;;;;12.10;7.30;;;;;;;16.26;63.76;97092.73;105106;1305;22560;-75
2022/10/16 06:37:01;;;;;;;10.10;7.60;;;;;;;16.01;63.41;97100.61;105098;1305;22472;-75
2022/10/16 06:39:33;;;;;;;13.20;7.60;;;;;;;15.81;63.58;97107.02;105073;1304;23377;-75
2022/10/16 06:42:05;;;;;;;11.20;8.30;;;;;;;15.72;63.95;97117.47;105060;1298;22911;-75
2022/10/16 06:44:39;;;;;;;10.60;8.40;;;;;;;15.86;64.09;97113.50;105068;1305;23003;-75
2022/10/16 06:47:10;;;;;;;10.90;8.00;;;;;;;16.17;63.71;97116.95;105049;1304;24561;-75
2022/10/16 06:49:41;;;;;;;10.10;7.90;;;;;;;16.56;63.10;97119.17;104970;1305;28094;-75
2022/10/16 06:52:13;;;;;;;9.50;7.80;;;;;;;16.89;62.04;97117.75;105029;1289;22849;-75
2022/10/16 06:54:44;;;;;;;9.30;7.80;;;;;;;16.96;61.17;97120.85;104999;1300;23798;-75
2022/10/16 06:57:15;;;;;;;10.10;7.80;;;;;;;17.25;60.85;97128.72;105066;1289;25352;-75
2022/10/16 06:59:46;;;;;;;10.80;7.60;;;;;;;17.55;59.66;97137.95;104971;1293;22482;-75
2022/10/16 07:02:18;;;;;;;9.70;8.20;;;;;;;17.90;59.04;97139.20;104962;1306;22475;-75
2022/10/16 07:04:49;;;;;;;9.30;7.30;;;;;;;17.87;58.41;97145.89;105003;1306;22595;-75
2022/10/16 07:07:20;;;;;;;10.90;7.70;;;;;;;17.87;58.73;97148.10;105001;1284;25246;-75
2022/10/16 07:09:51;;;;;;;11.40;7.90;;;;;;;18.31;58.25;97151.20;104936;1296;26477;-75
2022/10/16 07:12:23;;;;;;;10.50;7.40;;;;;;;18.46;57.16;97157.73;105012;1305;22471;-75
2022/10/16 07:14:55;;;;;;;13.70;7.70;;;;;;;18.16;57.51;97155.20;104991;1296;22471;-76
2022/10/16 07:17:26;;;;;;;9.40;7.20;;;;;;;17.92;57.85;97160.51;105018;1292;25265;-76
2022/10/16 07:19:57;;;;;;;9.80;7.30;;;;;;;17.48;57.93;97157.33;104997;1304;22477;-76
2022/10/16 07:22:31;;;;;;;8.30;7.10;;;;;;;17.08;59.00;97160.95;105087;1305;22936;-75
2022/10/16 07:25:07;;;;;;;9.00;7.30;;;;;;;17.18;58.95;97162.04;105073;1302;24257;-75
2022/10/16 07:27:39;;;;;;;8.90;6.70;;;;;;;16.97;59.32;97164.75;105075;1305;25959;-76
2022/10/16 07:30:13;;;;;;;9.40;7.50;;;;;;;16.81;59.48;97163.06;105034;1282;23936;-75
2022/10/16 07:32:44;;;;;;;11.20;8.60;;;;;;;16.66;60.31;97164.50;105052;1291;22618;-75
2022/10/16 07:35:16;;;;;;;10.80;7.30;;;;;;;16.67;60.51;97162.40;105017;1290;22485;-75
2022/10/16 07:37:48;;;;;;;11.40;8.10;;;;;;;16.79;60.86;97159.04;105055;1300;22496;-75
2022/10/16 07:40:20;;;;;;;11.50;8.30;;;;;;;18.12;60.25;97158.50;104919;1305;28766;-76
2022/10/16 07:42:52;;;;;;;9.10;7.90;;;;;;;19.66;57.10;97156.27;105020;1305;25493;-76
2022/10/16 07:45:26;;;;;;;8.90;7.00;;;;;;;20.95;55.62;97154.46;105012;1297;22477;-76
2022/10/16 07:47:58;;;;;;;10.10;6.90;;;;;;;22.10;53.30;97161.20;105024;1299;22585;-76
2022/10/16 07:50:30;;;;;;;9.50;6.80;;;;;;;22.64;50.70;97155.24;105001;1284;26645;-76
2022/10/16 07:53:01;;;;;;;7.60;5.70;;;;;;;22.65;48.47;97154.80;105021;1291;22492;-76
2022/10/16 07:55:33;;;;;;;9.30;6.60;;;;;;;21.82;48.28;97158.55;105036;1289;25393;-76
2022/10/16 07:58:05;;;;;;;11.00;6.50;;;;;;;21.53;49.27;97161.22;105009;1284;26447;-76
2022/10/16 08:00:37;;;;;;;8.20;6.60;;;;;;;21.24;49.44;97162.80;105051;1305;24708;-76
2022/10/16 08:03:09;;;;;;;9.90;6.70;;;;;;;20.81;49.66;97165.82;105107;1296;22506;-77
2022/10/16 08:05:40;;;;;;;10.00;6.90;;;;;;;20.22;49.69;97167.02;105034;1305;22680;-76
2022/10/16 08:08:16;;;;;;;9.60;7.00;;;;;;;19.90;50.75;97165.14;105066;1290;22478;-76
2022/10/16 08:10:47;;;;;;;8.90;7.30;;;;;;;19.85;51.53;97165.10;104902;1291;31796;-77
2022/10/16 08:13:18;;;;;;;10.10;7.00;;;;;;;19.66;51.43;97160.73;104988;1281;22469;-76
2022/10/16 08:15:50;;;;;;;8.20;7.00;;;;;;;19.49;52.37;97162.70;104987;1298;22474;-76
2022/10/16 08:18:21;;;;;;;9.30;6.90;;;;;;;19.33;52.43;97165.90;105009;1290;22607;-76
2022/10/16 08:20:58;;;;;;;8.90;7.60;;;;;;;19.11;52.41;97169.47;105076;1290;22492;-76
2022/10/16 08:23:30;;;;;;;9.30;7.00;;;;;;;18.96;53.28;97166.45;105048;1298;25315;-76
2022/10/16 08:26:06;;;;;;;8.00;6.70;;;;;;;18.87;53.36;97172.85;105086;1298;22503;-76
2022/10/16 08:28:38;;;;;;;9.40;7.00;;;;;;;18.84;53.77;97172.52;105080;1296;22520;-76
2022/10/16 08:31:15;;;;;;;8.50;6.90;;;;;;;18.93;54.30;97174.08;105048;1296;22484;-76
2022/10/16 08:33:47;;;;;;;8.20;6.50;;;;;;;18.98;54.28;97178.70;105057;1305;22500;-76
2022/10/16 08:36:19;;;;;;;10.70;6.20;;;;;;;18.99;54.51;97176.40;105085;1284;25254;-76
2022/10/16 08:38:53;;;;;;;9.30;6.60;;;;;;;18.93;53.78;97185.70;105036;1284;22552;-76
2022/10/16 08:41:49;;;;;;;6.90;5.60;;;;;;;18.65;53.89;97189.82;105095;1305;22473;-76
2022/10/16 08:44:38;;;;;;;9.30;6.80;;;;;;;18.32;54.41;97193.65;105078;1305;22489;-76
2022/10/16 08:47:19;;;;;;;8.00;6.00;;;;;;;18.14;54.79;97196.42;105084;1302;22596;-76
2022/10/16 08:49:59;;;;;;;7.60;6.00;;;;;;;18.03;55.11;97192.42;105076;1305;22479;-76
2022/10/16 08:52:35;;;;;;;8.70;6.10;;;;;;;17.95;55.23;97196.48;105112;1290;22467;-76
2022/10/16 08:55:07;;;;;;;7.10;5.70;;;;;;;17.91;55.48;97199.56;105072;1305;22493;-76
2022/10/16 08:57:38;;;;;;;7.90;6.30;;;;;;;17.91;55.28;97197.26;105054;1296;22584;-76
2022/10/16 09:00:16;;;;;;;8.00;6.20;;;;;;;17.88;54.98;97198.45;105032;1305;22458;-76
2022/10/16 09:02:56;;;;;;;7.40;5.40;;;;;;;17.71;54.93;97200.44;105076;1305;22961;-76
2022/10/16 09:05:48;;;;;;;7.30;5.30;;;;;;;17.54;55.64;97196.84;105048;1305;22593;-76
2022/10/16 09:08:29;;;;;;;8.80;6.00;;;;;;;17.42;55.92;97196.58;105087;1305;22478;-76
2022/10/16 09:11:07;;;;;;;7.30;5.70;;;;;;;17.47;56.09;97197.52;105097;1303;22653;-76
2022/10/16 09:13:49;;;;;;;10.10;6.40;;;;;;;17.51;56.02;97200.30;105059;1305;22493;-76
2022/10/16 09:16:25;;;;;;;8.00;5.70;;;;;;;17.49;56.21;97203.73;105113;1288;25688;-76
2022/10/16 09:19:10;;;;;;;7.40;5.80;;;;;;;17.50;55.85;97205.60;105002;1305;22472;-76
2022/10/16 09:21:47;;;;;;;8.40;6.30;;;;;;;17.36;56.29;97214.11;105030;1305;22493;-76
2022/10/16 09:24:21;;;;;;;8.90;6.60;;;;;;;17.36;56.45;97208.65;105086;1281;22473;-76
2022/10/16 09:26:53;;;;;;;8.50;5.50;;;;;;;17.34;56.76;97213.05;105052;1305;22505;-76
2022/10/16 09:29:24;;;;;;;8.40;6.10;;;;;;;17.33;56.81;97220.09;104982;1300;22505;-76
2022/10/16 09:32:08;;;;;;;7.10;5.80;;;;;;;17.30;56.98;97218.21;105064;1305;22508;-76
2022/10/16 09:34:45;;;;;;;7.80;5.60;;;;;;;17.25;57.16;97223.48;105019;1295;22479;-76
2022/10/16 09:37:20;;;;;;;11.00;7.10;;;;;;;17.26;57.40;97218.10;105034;1305;22461;-76
2022/10/16 09:39:53;;;;;;;8.80;6.60;;;;;;;17.32;57.66;97220.38;104964;1298;22605;-76
2022/10/16 09:42:29;;;;;;;7.60;5.20;;;;;;;17.35;57.48;97216.59;104988;1296;22510;-76
2022/10/16 09:45:01;;;;;;;11.10;6.90;;;;;;;17.30;57.66;97218.44;104995;1296;22477;-76
2022/10/16 09:47:38;;;;;;;10.80;7.00;;;;;;;17.29;58.08;97219.59;104953;1305;22513;-76
2022/10/16 09:50:26;;;;;;;8.40;6.80;;;;;;;17.24;58.30;97225.34;104909;1305;22478;-76
2022/10/16 09:53:11;;;;;;;8.60;7.20;;;;;;;17.18;58.53;97223.66;105051;1290;25446;-76
2022/10/16 09:55:53;;;;;;;8.10;7.10;;;;;;;17.11;58.80;97225.98;104999;1297;22477;-78
2022/10/16 09:58:26;;;;;;;9.10;7.70;;;;;;;17.04;58.98;97226.27;104965;1291;24051;-77
2022/10/16 10:00:57;;;;;;;10.20;7.00;;;;;;;17.04;59.11;97223.05;104984;1297;24326;-77
2022/10/16 10:03:38;;;;;;;9.70;6.20;;;;;;;17.06;58.98;97215.71;105006;1305;22479;-77
2022/10/16 10:06:21;;;;;;;9.60;7.10;;;;;;;17.08;59.07;97213.02;104988;1283;22476;-78
2022/10/16 10:09:03;;;;;;;7.80;6.20;;;;;;;17.19;59.07;97211.26;104969;1296;22594;-77
2022/10/16 10:11:48;;;;;;;10.30;6.80;;;;;;;17.27;58.62;97215.34;105069;1281;22471;-77
2022/10/16 10:14:24;;;;;;;8.30;7.40;;;;;;;17.29;58.46;97213.35;105012;1305;22500;-77
2022/10/16 10:17:03;;;;;;;9.30;6.90;;;;;;;17.32;58.63;97211.96;104984;1292;24256;-77
2022/10/16 10:19:41;;;;;;;10.60;6.70;;;;;;;17.34;58.70;97214.91;104977;1289;23253;-77
2022/10/16 10:22:26;;;;;;;7.60;5.50;;;;;;;17.36;58.32;97217.70;105055;1291;22484;-77
2022/10/16 10:25:15;;;;;;;8.90;7.10;;;;;;;17.35;57.47;97214.35;105081;1296;22486;-77
2022/10/16 10:28:01;;;;;;;8.10;6.60;;;;;;;17.44;58.01;97216.58;105021;1296;22486;-77
2022/10/16 10:30:42;;;;;;;7.70;6.10;;;;;;;17.57;57.59;97214.84;104973;1296;22463;-77
2022/10/16 10:33:25;;;;;;;8.80;5.80;;;;;;;17.67;57.65;97214.92;105014;1289;22520;-77
2022/10/16 10:36:07;;;;;;;9.20;6.40;;;;;;;17.73;56.94;97211.39;104974;1305;22489;-77
2022/10/16 10:38:48;;;;;;;7.40;6.10;;;;;;;17.79;56.27;97216.23;104937;1298;22463;-77
2022/10/16 10:41:50;;;;;;;9.20;6.70;;;;;;;17.89;56.14;97213.94;105013;1305;22470;-77
2022/10/16 10:44:27;;;;;;;8.30;5.90;;;;;;;18.01;56.16;97210.89;105024;1290;22533;-77
2022/10/16 10:47:14;;;;;;;8.40;6.50;;;;;;;18.07;55.91;97212.73;104966;1305;25328;-77
2022/10/16 10:49:57;;;;;;;8.40;6.60;;;;;;;18.13;55.59;97211.32;104962;1290;22450;-77
2022/10/16 10:52:42;;;;;;;8.40;6.70;;;;;;;18.18;55.27;97206.77;104990;1305;25077;-77
2022/10/16 10:55:22;;;;;;;9.00;6.40;;;;;;;18.27;55.21;97212.55;105006;1289;22479;-77
2022/10/16 10:58:28;;;;;;;7.40;6.30;;;;;;;18.35;54.97;97208.19;104978;1290;22601;-77
2022/10/16 11:01:09;;;;;;;8.10;6.60;;;;;;;18.35;54.29;97208.31;105036;1302;22467;-77
2022/10/16 11:04:06;;;;;;;8.60;6.10;;;;;;;18.39;53.99;97202.76;105079;1284;22484;-78
2022/10/16 11:06:41;;;;;;;8.50;6.40;;;;;;;18.45;53.97;97199.94;105055;1305;23025;-78
2022/10/16 11:09:19;;;;;;;7.80;6.10;;;;;;;18.48;53.51;97205.05;105095;1293;25110;-78
2022/10/16 11:11:54;;;;;;;12.10;6.40;;;;;;;18.49;52.93;97205.49;105074;1305;24259;-77
2022/10/16 11:14:32;;;;;;;8.20;5.50;;;;;;;18.52;53.14;97202.23;105010;1298;23026;-77
2022/10/16 11:17:13;;;;;;;7.10;5.80;;;;;;;18.56;53.56;97202.36;104990;1305;22503;-77
2022/10/16 11:19:50;;;;;;;6.60;5.20;;;;;;;18.55;52.85;97204.13;104990;1284;26308;-77
2022/10/16 11:22:28;;;;;;;8.70;5.90;;;;;;;18.49;52.03;97207.70;105119;1297;22511;-77
2022/10/16 11:25:05;;;;;;;7.90;5.30;;;;;;;18.50;52.23;97208.45;105046;1297;22494;-77
2022/10/16 11:27:42;;;;;;;10.00;6.70;;;;;;;18.50;52.19;97214.42;105102;1302;22489;-77
2022/10/16 11:30:21;;;;;;;7.60;5.70;;;;;;;18.51;51.98;97215.54;104996;1281;23404;-77
2022/10/16 11:33:04;;;;;;;7.10;5.50;;;;;;;18.52;52.10;97212.16;105089;1305;22532;-77
2022/10/16 11:35:44;;;;;;;6.30;5.30;;;;;;;18.50;52.07;97214.37;105075;1305;22478;-77
2022/10/16 11:38:27;;;;;;;7.90;5.20;;;;;;;18.50;52.15;97214.65;105090;1291;22457;-77
2022/10/16 11:41:03;;;;;;;6.70;5.10;;;;;;;18.49;52.48;97211.40;105087;1298;22499;-77
2022/10/16 11:43:40;;;;;;;7.00;5.60;;;;;;;18.51;52.61;97206.25;105050;1303;22478;-77
2022/10/16 11:46:18;;;;;;;6.30;5.40;;;;;;;18.50;52.61;97207.98;105083;1291;22519;-77
2022/10/16 11:48:55;;;;;;;6.70;5.50;;;;;;;18.48;52.72;97205.90;105045;1297;23011;-77
2022/10/16 11:51:34;;;;;;;9.70;6.20;;;;;;;18.46;52.92;97206.77;105007;1297;22958;-77
2022/10/16 11:54:17;;;;;;;7.10;5.70;;;;;;;18.42;52.65;97209.30;104983;1283;22499;-77